Time;durP1;ratioP1;P1;durP2;ratioP2;P2;SDS_P1;SDS_P2;PMS_P1;PMS_P2;Temp;Humidity;BMP_temperature;BMP_pressure;BME280_temperature;BME280_humidity;BME280_pressure;Samples;Min_cycle;Max_cycle;Signal;HPM_P1;HPM_P2
2023/09/06 00:01:35;;;;;;;25.08;7.65;;;22.70;99.90;;;;;;5074489;28;20036;-60
2023/09/06 00:04:00;;;;;;;21.95;6.85;;;22.60;99.90;;;;;;5074557;28;20021;-60
2023/09/06 00:06:27;;;;;;;23.42;7.13;;;22.60;99.90;;;;;;5074331;28;20110;-59
2023/09/06 00:08:53;;;;;;;23.50;7.00;;;22.60;99.90;;;;;;5074593;28;20466;-60
2023/09/06 00:11:18;;;;;;;21.88;6.50;;;22.60;99.90;;;;;;5074356;28;20052;-60
2023/09/06 00:13:44;;;;;;;23.13;6.75;;;22.70;99.90;;;;;;5073884;28;20028;-60
2023/09/06 00:16:10;;;;;;;28.98;6.72;;;22.70;99.90;;;;;;5074479;28;20028;-59
2023/09/06 00:18:37;;;;;;;23.33;6.72;;;22.70;99.90;;;;;;5074109;28;20541;-60
2023/09/06 00:21:05;;;;;;;24.25;7.07;;;22.90;99.90;;;;;;5073751;28;20516;-60
2023/09/06 00:23:32;;;;;;;22.10;6.03;;;23.00;99.90;;;;;;5074113;28;20024;-60
2023/09/06 00:25:58;;;;;;;20.10;6.57;;;23.10;99.90;;;;;;5073847;28;20132;-59
2023/09/06 00:28:24;;;;;;;24.90;7.05;;;23.20;99.90;;;;;;5073461;28;20494;-60
2023/09/06 00:30:50;;;;;;;26.77;6.22;;;23.20;99.90;;;;;;5073866;28;20027;-60
2023/09/06 00:33:16;;;;;;;25.05;6.72;;;23.30;99.90;;;;;;5073890;28;20115;-60
2023/09/06 00:35:43;;;;;;;23.67;6.93;;;23.30;99.90;;;;;;5073679;28;20035;-60
2023/09/06 00:38:10;;;;;;;20.45;6.18;;;23.30;99.90;;;;;;5073596;28;20060;-59
2023/09/06 00:40:37;;;;;;;25.73;6.28;;;23.20;99.90;;;;;;5074031;28;20107;-60
2023/09/06 00:43:04;;;;;;;20.92;6.07;;;23.20;99.90;;;;;;5073301;28;20095;-59
2023/09/06 00:45:38;;;;;;;15.80;5.30;;;23.10;99.90;;;;;;5073703;28;20023;-60
2023/09/06 00:48:05;;;;;;;19.88;5.78;;;23.10;99.90;;;;;;5073063;28;20035;-59
2023/09/06 00:50:33;;;;;;;20.17;5.75;;;23.00;99.90;;;;;;5073576;28;20432;-60
2023/09/06 00:52:59;;;;;;;22.92;5.65;;;23.00;99.90;;;;;;5073748;28;20075;-60
2023/09/06 00:55:26;;;;;;;24.63;6.32;;;22.90;99.90;;;;;;5073285;28;20111;-60
2023/09/06 00:57:52;;;;;;;20.20;5.90;;;22.80;99.90;;;;;;5073244;28;20025;-60
2023/09/06 01:00:19;;;;;;;24.48;5.97;;;22.60;99.90;;;;;;5073416;28;20025;-60
2023/09/06 01:02:47;;;;;;;16.98;5.97;;;22.40;99.90;;;;;;5055203;28;20473;-60
2023/09/06 01:05:15;;;;;;;24.48;5.90;;;22.30;99.90;;;;;;5073338;28;20489;-59
2023/09/06 01:07:53;;;;;;;20.50;5.90;;;22.20;99.90;;;;;;5073496;28;20433;-60
2023/09/06 01:10:19;;;;;;;20.33;5.75;;;22.20;99.90;;;;;;5073071;28;20035;-60
2023/09/06 01:12:45;;;;;;;23.77;6.32;;;22.30;99.90;;;;;;5073093;28;20020;-60
2023/09/06 01:15:11;;;;;;;17.77;6.10;;;22.30;99.90;;;;;;5073002;28;20067;-59
2023/09/06 01:17:41;;;;;;;24.75;6.22;;;22.20;99.90;;;;;;5072984;28;20040;-60
2023/09/06 01:20:36;;;;;;;21.27;6.05;;;22.20;99.90;;;;;;5072967;28;20017;-60
2023/09/06 01:23:40;;;;;;;18.83;6.10;;;22.10;99.90;;;;;;5055521;28;20036;-60
2023/09/06 01:26:07;;;;;;;22.50;5.30;;;22.20;99.90;;;;;;5072538;28;20056;-60
2023/09/06 01:28:33;;;;;;;21.67;5.90;;;22.30;99.90;;;;;;5072365;28;20052;-60
2023/09/06 01:31:00;;;;;;;19.02;6.10;;;22.30;99.90;;;;;;5073137;28;20044;-60
2023/09/06 01:33:28;;;;;;;22.77;6.18;;;22.30;99.90;;;;;;5072842;28;20382;-60
2023/09/06 01:35:54;;;;;;;25.52;5.90;;;22.30;99.90;;;;;;5072823;28;20036;-60
2023/09/06 01:38:20;;;;;;;20.30;6.10;;;22.30;99.90;;;;;;5072552;28;20111;-60
2023/09/06 01:40:45;;;;;;;19.63;5.78;;;22.40;99.90;;;;;;5072063;28;20111;-59
2023/09/06 01:43:12;;;;;;;22.70;5.80;;;22.50;99.90;;;;;;5072857;28;20397;-60
2023/09/06 01:45:42;;;;;;;24.10;5.80;;;22.70;99.90;;;;;;5072848;28;20028;-60
2023/09/06 01:48:08;;;;;;;22.90;6.10;;;22.80;99.90;;;;;;5072239;28;20068;-60
2023/09/06 01:50:33;;;;;;;20.60;5.70;;;22.80;99.90;;;;;;5072534;28;20097;-59
2023/09/06 01:52:59;;;;;;;24.90;6.20;;;22.90;99.90;;;;;;5072205;28;20123;-60
2023/09/06 01:55:25;;;;;;;23.02;5.53;;;22.90;99.90;;;;;;5071966;28;20051;-60
2023/09/06 01:57:50;;;;;;;22.38;6.22;;;22.90;99.90;;;;;;5072636;28;20034;-60
2023/09/06 02:00:27;;;;;;;17.40;5.72;;;23.00;99.90;;;;;;5071521;28;20028;-59
2023/09/06 02:02:56;;;;;;;20.73;6.35;;;22.90;99.90;;;;;;5071904;28;20028;-60
2023/09/06 02:05:22;;;;;;;27.83;6.10;;;22.90;99.90;;;;;;5072194;28;20059;-60
2023/09/06 02:07:48;;;;;;;21.17;5.85;;;22.90;99.90;;;;;;5072356;28;20040;-59
2023/09/06 02:10:14;;;;;;;21.00;5.80;;;22.90;99.90;;;;;;5071607;28;20035;-60
2023/09/06 02:12:40;;;;;;;25.33;6.40;;;22.80;99.90;;;;;;5072090;28;20432;-60
2023/09/06 02:15:07;;;;;;;21.98;6.32;;;22.80;99.90;;;;;;5071933;28;20426;-60
2023/09/06 02:17:36;;;;;;;20.30;5.80;;;22.70;99.90;;;;;;5071635;28;20039;-59
2023/09/06 02:20:21;;;;;;;24.95;5.75;;;22.50;99.90;;;;;;5072177;28;20095;-60
2023/09/06 02:22:51;;;;;;;17.15;5.70;;;22.40;99.90;;;;;;5071485;28;20056;-60
2023/09/06 02:25:20;;;;;;;21.83;5.57;;;22.30;99.90;;;;;;5071602;28;20021;-59
2023/09/06 02:27:46;;;;;;;20.25;6.53;;;22.20;99.90;;;;;;5071384;28;20060;-60
2023/09/06 02:30:11;;;;;;;21.27;6.18;;;22.10;99.90;;;;;;5071573;28;20028;-59
2023/09/06 02:32:37;;;;;;;20.63;6.18;;;22.00;99.90;;;;;;5071672;28;20036;-60
2023/09/06 02:35:05;;;;;;;21.10;6.88;;;21.90;99.90;;;;;;5071557;28;20042;-60
2023/09/06 02:37:31;;;;;;;22.17;5.93;;;21.90;99.90;;;;;;5071505;28;20048;-60
2023/09/06 02:39:56;;;;;;;20.52;6.28;;;21.90;99.90;;;;;;5071322;28;20017;-60
2023/09/06 02:42:22;;;;;;;23.23;7.38;;;22.00;99.90;;;;;;5071484;28;20037;-60
2023/09/06 02:44:48;;;;;;;23.20;6.32;;;22.10;99.90;;;;;;5071287;28;20115;-60
2023/09/06 02:47:17;;;;;;;23.25;6.28;;;22.10;99.90;;;;;;5071365;28;20056;-60
2023/09/06 02:49:45;;;;;;;26.90;7.13;;;22.10;99.90;;;;;;5071748;28;20086;-59
2023/09/06 02:52:28;;;;;;;26.70;6.78;;;22.10;99.90;;;;;;5070905;28;20047;-60
2023/09/06 02:54:58;;;;;;;26.65;6.72;;;22.10;99.90;;;;;;5071566;28;20389;-60
2023/09/06 02:57:29;;;;;;;24.90;6.50;;;22.10;99.90;;;;;;5071195;28;20028;-60
2023/09/06 02:59:55;;;;;;;22.10;6.88;;;22.10;99.90;;;;;;5071663;28;20016;-59
2023/09/06 03:02:21;;;;;;;28.10;6.55;;;22.20;99.90;;;;;;5071102;28;20406;-60
2023/09/06 03:04:51;;;;;;;20.70;6.22;;;22.30;99.90;;;;;;5071202;28;20024;-60
2023/09/06 03:07:19;;;;;;;27.27;7.18;;;22.50;99.90;;;;;;5071113;28;20471;-60
2023/09/06 03:09:44;;;;;;;25.05;7.28;;;22.50;99.90;;;;;;5071170;28;20103;-59
2023/09/06 03:12:14;;;;;;;24.67;6.72;;;22.60;99.90;;;;;;5071098;28;20449;-59
2023/09/06 03:14:44;;;;;;;24.15;6.55;;;22.60;99.90;;;;;;5071311;28;20417;-59
2023/09/06 03:17:13;;;;;;;23.95;7.45;;;22.60;99.90;;;;;;5070897;28;20056;-60
2023/09/06 03:19:44;;;;;;;26.75;6.68;;;22.60;99.90;;;;;;5070819;28;20447;-59
2023/09/06 03:22:12;;;;;;;24.75;7.03;;;22.50;99.90;;;;;;5070674;28;20090;-60
2023/09/06 03:24:41;;;;;;;24.05;6.95;;;22.50;99.90;;;;;;5071466;28;20095;-59
2023/09/06 03:27:08;;;;;;;23.50;7.28;;;22.50;99.90;;;;;;5070746;28;20568;-59
2023/09/06 03:29:37;;;;;;;25.67;6.40;;;22.50;99.90;;;;;;5070914;28;20025;-59
2023/09/06 03:32:07;;;;;;;24.65;7.05;;;22.50;99.90;;;;;;5070923;28;20032;-59
2023/09/06 03:34:36;;;;;;;33.20;7.45;;;22.50;99.90;;;;;;5071478;28;20079;-59
2023/09/06 03:37:04;;;;;;;22.33;7.28;;;22.50;99.90;;;;;;5070326;28;20033;-59
2023/09/06 03:39:32;;;;;;;24.77;7.82;;;22.30;99.90;;;;;;5070865;28;20030;-59
2023/09/06 03:42:00;;;;;;;29.75;8.25;;;22.20;99.90;;;;;;5071252;28;20393;-59
2023/09/06 03:44:27;;;;;;;23.10;7.57;;;22.00;99.90;;;;;;5070805;28;20081;-59
2023/09/06 03:46:56;;;;;;;24.23;7.50;;;21.90;99.90;;;;;;5070586;28;20024;-59
2023/09/06 03:49:23;;;;;;;24.90;8.60;;;21.90;99.90;;;;;;5070839;28;20500;-59
2023/09/06 03:51:50;;;;;;;24.92;8.82;;;21.80;99.90;;;;;;5070578;28;20059;-59
2023/09/06 03:54:18;;;;;;;24.83;8.57;;;21.80;99.90;;;;;;5070828;28;20107;-60
2023/09/06 03:56:43;;;;;;;24.95;8.27;;;21.70;99.90;;;;;;5070667;28;20024;-60
2023/09/06 03:59:11;;;;;;;25.80;8.40;;;21.70;99.90;;;;;;5070531;28;20029;-60
2023/09/06 04:01:37;;;;;;;26.10;8.60;;;21.70;99.90;;;;;;5071078;28;20028;-59
2023/09/06 04:04:04;;;;;;;24.83;8.07;;;21.70;99.90;;;;;;5070495;28;20504;-60
2023/09/06 04:06:30;;;;;;;26.40;7.85;;;21.70;99.90;;;;;;5070155;28;20028;-59
2023/09/06 04:08:55;;;;;;;28.15;8.07;;;21.70;99.90;;;;;;5070572;28;20131;-59
2023/09/06 04:11:21;;;;;;;27.73;7.75;;;21.70;99.90;;;;;;5070457;28;20035;-59
2023/09/06 04:13:47;;;;;;;21.77;7.53;;;21.70;99.90;;;;;;5070924;28;20040;-59
2023/09/06 04:16:14;;;;;;;21.35;7.40;;;21.70;99.90;;;;;;5070517;28;20017;-59
2023/09/06 04:18:42;;;;;;;18.88;7.30;;;21.70;99.90;;;;;;5070437;28;20112;-60
2023/09/06 04:21:08;;;;;;;18.27;7.32;;;21.70;99.90;;;;;;5070209;28;20029;-60
2023/09/06 04:23:36;;;;;;;17.60;7.20;;;21.80;99.90;;;;;;5072648;28;20056;-59
2023/09/06 04:26:03;;;;;;;17.02;7.25;;;21.90;99.90;;;;;;5073889;28;20485;-60
2023/09/06 04:28:28;;;;;;;17.15;6.97;;;21.90;99.90;;;;;;5074107;28;20044;-59
2023/09/06 04:30:54;;;;;;;19.58;7.28;;;22.10;99.90;;;;;;5073607;28;20063;-59
2023/09/06 04:33:20;;;;;;;20.85;7.38;;;22.10;99.90;;;;;;5074013;28;20029;-62
2023/09/06 04:35:48;;;;;;;15.98;6.90;;;22.20;99.90;;;;;;5073822;28;20432;-59
2023/09/06 04:38:23;;;;;;;15.70;6.40;;;22.20;99.90;;;;;;5073606;28;20048;-59
2023/09/06 04:40:51;;;;;;;13.85;6.07;;;22.20;99.90;;;;;;5073778;28;20017;-60
2023/09/06 04:43:18;;;;;;;13.30;6.50;;;22.20;99.90;;;;;;5074085;28;20040;-60
2023/09/06 04:45:44;;;;;;;14.45;7.28;;;22.30;99.90;;;;;;5073617;28;20040;-60
2023/09/06 04:48:11;;;;;;;14.95;6.28;;;22.30;99.90;;;;;;5073255;28;20048;-60
2023/09/06 04:50:40;;;;;;;13.32;6.03;;;22.30;99.90;;;;;;5073598;28;20017;-60
2023/09/06 04:53:11;;;;;;;13.60;6.43;;;22.30;99.90;;;;;;5073988;28;20048;-59
2023/09/06 04:55:38;;;;;;;13.98;6.32;;;22.30;99.90;;;;;;5073618;28;20027;-60
2023/09/06 04:58:04;;;;;;;15.07;6.22;;;22.30;99.90;;;;;;5073635;28;20029;-60
2023/09/06 05:00:32;;;;;;;12.50;6.00;;;22.30;99.90;;;;;;5073324;28;20036;-59
2023/09/06 05:02:58;;;;;;;13.60;6.10;;;22.20;99.90;;;;;;5072870;28;20100;-60
2023/09/06 05:05:25;;;;;;;14.10;6.07;;;22.10;99.90;;;;;;5073369;28;20055;-59
2023/09/06 05:07:51;;;;;;;12.10;5.82;;;22.00;99.90;;;;;;5073178;28;20072;-59
2023/09/06 05:10:17;;;;;;;12.70;6.70;;;21.90;99.90;;;;;;5073649;28;20382;-59
2023/09/06 05:12:43;;;;;;;13.32;6.43;;;21.80;99.90;;;;;;5073229;28;20021;-59
2023/09/06 05:15:12;;;;;;;11.88;5.88;;;21.80;99.90;;;;;;5073142;28;20020;-59
2023/09/06 05:17:38;;;;;;;12.15;6.22;;;21.70;99.90;;;;;;5072641;28;20033;-59
2023/09/06 05:20:27;;;;;;;8.95;5.35;;;21.70;99.90;;;;;;5073178;28;20376;-59
2023/09/06 05:22:57;;;;;;;13.50;6.15;;;21.70;99.90;;;;;;5072860;28;20048;-59
2023/09/06 05:25:23;;;;;;;16.05;6.50;;;21.70;99.90;;;;;;5073033;28;20517;-60
2023/09/06 05:27:49;;;;;;;9.38;5.53;;;21.60;99.90;;;;;;5072703;28;20057;-59
2023/09/06 05:30:15;;;;;;;13.25;5.60;;;21.60;99.90;;;;;;5072896;28;20477;-59
2023/09/06 05:32:41;;;;;;;9.00;5.40;;;21.60;99.90;;;;;;5072364;28;20039;-59
2023/09/06 05:35:07;;;;;;;14.75;6.22;;;21.60;99.90;;;;;;5072075;28;20020;-59
2023/09/06 05:37:32;;;;;;;14.27;5.80;;;21.50;99.90;;;;;;5072622;28;20147;-61
2023/09/06 05:39:58;;;;;;;11.43;5.60;;;21.50;99.90;;;;;;5072693;28;20025;-60
2023/09/06 05:42:24;;;;;;;12.25;6.13;;;21.60;99.90;;;;;;5072566;28;20104;-59
2023/09/06 05:44:49;;;;;;;9.68;5.78;;;21.70;99.90;;;;;;5072556;28;20021;-60
2023/09/06 05:47:15;;;;;;;15.18;5.93;;;21.90;99.90;;;;;;5072353;28;20464;-60
2023/09/06 05:49:41;;;;;;;8.95;5.28;;;22.10;99.90;;;;;;5072692;28;20024;-60
2023/09/06 05:52:06;;;;;;;10.55;5.63;;;22.20;99.90;;;;;;5072192;28;20032;-60
2023/09/06 05:54:32;;;;;;;11.40;5.68;;;22.30;99.90;;;;;;5072515;28;20092;-60
2023/09/06 05:56:58;;;;;;;10.52;5.28;;;22.30;99.90;;;;;;5072180;28;20535;-59
2023/09/06 05:59:24;;;;;;;10.77;5.25;;;22.30;99.90;;;;;;5072277;28;20539;-60
2023/09/06 06:01:49;;;;;;;10.60;5.57;;;22.30;99.90;;;;;;5071636;28;20063;-59
2023/09/06 06:04:16;;;;;;;10.27;5.63;;;22.30;99.90;;;;;;5072546;28;20029;-59
2023/09/06 06:06:41;;;;;;;8.80;5.25;;;22.40;99.90;;;;;;5071949;28;20041;-58
2023/09/06 06:09:11;;;;;;;8.05;5.15;;;22.50;99.90;;;;;;5054156;28;20032;-59
2023/09/06 06:11:40;;;;;;;12.45;5.85;;;22.50;99.90;;;;;;5072321;28;20072;-59
2023/09/06 06:14:06;;;;;;;11.35;5.32;;;22.50;99.90;;;;;;5071545;28;20512;-59
2023/09/06 06:16:32;;;;;;;11.38;5.40;;;22.50;99.90;;;;;;5071417;28;20032;-59
2023/09/06 06:18:57;;;;;;;8.73;4.93;;;22.60;99.90;;;;;;5071829;28;20035;-59
2023/09/06 06:21:25;;;;;;;10.93;5.35;;;22.50;99.90;;;;;;5072181;28;20099;-59
2023/09/06 06:23:51;;;;;;;9.05;5.00;;;22.50;99.90;;;;;;5071773;28;20031;-59
2023/09/06 06:26:19;;;;;;;6.60;5.13;;;22.40;99.90;;;;;;5053653;28;20026;-59
2023/09/06 06:28:45;;;;;;;10.80;5.22;;;22.40;99.90;;;;;;5071939;28;20114;-58
2023/09/06 06:31:12;;;;;;;8.10;5.30;;;22.40;99.90;;;;;;5071413;28;20033;-59
2023/09/06 06:33:38;;;;;;;9.35;5.07;;;22.30;99.90;;;;;;5071543;28;20037;-59
2023/09/06 06:36:05;;;;;;;6.90;4.80;;;22.30;99.90;;;;;;5071495;28;20021;-59
2023/09/06 06:38:33;;;;;;;7.25;5.20;;;22.30;99.90;;;;;;5071740;28;20063;-59
2023/09/06 06:40:59;;;;;;;9.05;5.10;;;22.40;99.90;;;;;;5071835;28;20107;-59
2023/09/06 06:43:26;;;;;;;8.77;4.88;;;22.40;99.90;;;;;;5071505;28;20107;-59
2023/09/06 06:45:53;;;;;;;8.00;5.00;;;22.40;99.90;;;;;;5070448;28;20508;-59
2023/09/06 06:48:20;;;;;;;7.40;4.95;;;22.40;99.90;;;;;;5071544;28;20040;-59
2023/09/06 06:50:46;;;;;;;8.93;4.85;;;22.50;99.90;;;;;;5071587;28;20488;-59
2023/09/06 06:53:11;;;;;;;8.27;4.88;;;22.60;99.90;;;;;;5071511;28;20040;-59
2023/09/06 06:55:37;;;;;;;8.52;5.00;;;22.70;99.90;;;;;;5071397;28;20020;-59
2023/09/06 06:58:06;;;;;;;7.30;4.70;;;22.80;99.90;;;;;;5071270;28;20032;-59
2023/09/06 07:00:31;;;;;;;9.25;5.20;;;22.80;99.90;;;;;;5070933;28;20563;-59
2023/09/06 07:03:00;;;;;;;10.25;5.03;;;22.80;99.90;;;;;;5071597;28;20032;-59
2023/09/06 07:05:27;;;;;;;10.70;5.15;;;22.90;99.90;;;;;;5071555;28;20083;-59
2023/09/06 07:07:53;;;;;;;7.70;4.53;;;23.10;99.90;;;;;;5071020;28;20083;-59
2023/09/06 07:10:19;;;;;;;9.13;4.70;;;23.30;99.90;;;;;;5071084;28;20029;-59
2023/09/06 07:12:45;;;;;;;9.70;4.95;;;23.50;99.90;;;;;;5070978;28;20029;-59
2023/09/06 07:15:11;;;;;;;9.30;5.20;;;23.60;99.90;;;;;;5071072;28;20394;-58
2023/09/06 07:17:37;;;;;;;8.23;4.72;;;23.70;99.90;;;;;;5071170;28;20433;-59
2023/09/06 07:20:05;;;;;;;7.25;4.40;;;23.80;99.90;;;;;;5071007;28;20032;-61
2023/09/06 07:22:30;;;;;;;7.43;4.57;;;23.90;99.90;;;;;;5071009;28;20028;-60
2023/09/06 07:24:56;;;;;;;9.05;4.88;;;24.00;99.90;;;;;;5071454;28;20504;-60
2023/09/06 07:27:22;;;;;;;7.10;4.70;;;24.10;99.90;;;;;;5070265;28;20055;-60
2023/09/06 07:29:48;;;;;;;7.90;4.40;;;24.10;99.90;;;;;;5070907;28;20036;-60
2023/09/06 07:32:14;;;;;;;7.75;4.43;;;24.10;99.90;;;;;;5071270;28;20040;-61
2023/09/06 07:34:39;;;;;;;6.80;4.53;;;24.20;99.90;;;;;;5053321;28;20033;-61
2023/09/06 07:37:05;;;;;;;6.25;4.30;;;24.30;99.90;;;;;;5070863;28;20025;-60
2023/09/06 07:39:31;;;;;;;7.60;4.72;;;24.30;99.90;;;;;;5070776;28;20035;-60
2023/09/06 07:41:57;;;;;;;6.95;4.30;;;24.40;99.90;;;;;;5070830;28;20052;-61
2023/09/06 07:44:22;;;;;;;6.07;4.40;;;24.30;99.90;;;;;;5070799;28;20398;-60
2023/09/06 07:46:48;;;;;;;9.18;4.50;;;24.20;99.90;;;;;;5071068;28;20404;-60
2023/09/06 07:49:20;;;;;;;5.55;4.50;;;24.20;99.90;;;;;;5070845;28;20092;-60
2023/09/06 07:51:46;;;;;;;6.00;4.40;;;24.20;99.90;;;;;;5070241;28;20028;-61
2023/09/06 07:54:12;;;;;;;8.00;4.78;;;24.10;99.90;;;;;;5070698;28;20552;-61
2023/09/06 07:56:39;;;;;;;6.50;4.10;;;24.10;99.90;;;;;;5070451;28;20492;-60
2023/09/06 07:59:08;;;;;;;6.90;4.45;;;24.00;99.90;;;;;;5073832;28;20091;-60
2023/09/06 08:01:33;;;;;;;5.68;4.40;;;24.00;99.90;;;;;;5075147;28;20485;-60
2023/09/06 08:03:59;;;;;;;5.47;4.00;;;24.10;99.90;;;;;;5074466;28;20028;-61
2023/09/06 08:06:25;;;;;;;7.53;4.57;;;24.10;99.90;;;;;;5074526;28;20402;-60
2023/09/06 08:08:51;;;;;;;7.28;4.30;;;24.20;99.90;;;;;;5074445;28;20029;-60
2023/09/06 08:11:17;;;;;;;7.03;4.43;;;24.20;99.90;;;;;;5074099;28;20025;-60
2023/09/06 08:13:43;;;;;;;7.25;4.50;;;24.20;99.90;;;;;;5074692;28;20025;-61
2023/09/06 08:16:10;;;;;;;6.70;4.45;;;24.30;99.90;;;;;;5074326;28;20055;-61
2023/09/06 08:18:36;;;;;;;6.93;4.70;;;24.30;99.90;;;;;;5074394;28;20027;-60
2023/09/06 08:21:02;;;;;;;8.13;4.70;;;24.40;99.90;;;;;;5074163;28;20021;-60
2023/09/06 08:23:28;;;;;;;7.93;4.50;;;24.50;99.90;;;;;;5074308;28;20059;-60
2023/09/06 08:25:55;;;;;;;8.93;4.32;;;24.50;99.90;;;;;;5073783;28;20016;-60
2023/09/06 08:28:21;;;;;;;8.02;4.32;;;24.60;99.90;;;;;;5073895;28;20052;-61
2023/09/06 08:30:47;;;;;;;6.70;4.47;;;24.70;99.90;;;;;;5056121;28;20029;-59
2023/09/06 08:33:13;;;;;;;8.75;4.57;;;24.90;99.90;;;;;;5074512;28;20035;-60
2023/09/06 08:35:39;;;;;;;8.13;4.18;;;25.20;99.90;;;;;;5074189;28;20108;-60
2023/09/06 08:38:05;;;;;;;6.40;4.30;;;25.30;99.90;;;;;;5074079;28;20107;-60
2023/09/06 08:40:30;;;;;;;8.32;4.40;;;25.40;99.90;;;;;;5073492;28;20139;-60
2023/09/06 08:43:02;;;;;;;6.97;4.32;;;25.50;99.90;;;;;;5073909;28;20091;-60
2023/09/06 08:45:29;;;;;;;7.18;4.50;;;25.70;99.90;;;;;;5073915;28;20036;-60
2023/09/06 08:47:55;;;;;;;6.40;4.50;;;25.70;99.90;;;;;;5074127;28;20043;-59
2023/09/06 08:50:21;;;;;;;8.10;4.60;;;25.80;99.90;;;;;;5073710;28;20047;-60
2023/09/06 08:52:50;;;;;;;9.13;4.75;;;26.00;99.90;;;;;;5073562;28;20112;-60
2023/09/06 08:55:17;;;;;;;7.43;4.10;;;26.10;99.90;;;;;;5073241;28;20032;-60
2023/09/06 08:57:44;;;;;;;9.02;4.63;;;26.00;99.90;;;;;;5073523;28;20418;-60
2023/09/06 09:00:11;;;;;;;6.80;4.57;;;26.10;99.90;;;;;;5073533;28;20031;-60
2023/09/06 09:02:40;;;;;;;6.55;4.18;;;26.10;99.90;;;;;;5073451;28;20063;-60
2023/09/06 09:05:06;;;;;;;5.82;4.05;;;26.10;99.90;;;;;;5073436;28;20519;-61
2023/09/06 09:07:32;;;;;;;9.18;4.70;;;26.20;99.90;;;;;;5073265;28;20032;-60
2023/09/06 09:10:04;;;;;;;7.63;4.55;;;26.10;99.90;;;;;;5072651;28;20020;-60
2023/09/06 09:12:30;;;;;;;6.82;4.47;;;26.10;99.90;;;;;;5073305;28;20067;-60
2023/09/06 09:14:57;;;;;;;6.90;4.28;;;25.90;99.90;;;;;;5073657;28;20071;-60
2023/09/06 09:17:24;;;;;;;6.75;4.20;;;25.80;99.90;;;;;;5073074;28;20111;-61
2023/09/06 09:20:00;;;;;;;7.18;4.22;;;25.80;99.90;;;;;;5073025;28;20013;-60
2023/09/06 09:22:31;;;;;;;6.80;4.55;;;25.80;99.90;;;;;;5073073;28;20461;-61
2023/09/06 09:25:04;;;;;;;7.18;4.32;;;25.70;99.90;;;;;;5072434;28;20017;-60
2023/09/06 09:27:30;;;;;;;9.18;4.55;;;25.80;99.90;;;;;;5072716;28;20052;-60
2023/09/06 09:29:56;;;;;;;8.05;4.88;;;25.80;99.90;;;;;;5073546;28;20390;-60
2023/09/06 09:32:22;;;;;;;8.45;4.00;;;25.80;99.90;;;;;;5072635;28;20036;-60
2023/09/06 09:34:49;;;;;;;6.07;4.45;;;25.90;99.90;;;;;;5072782;28;20024;-59
2023/09/06 09:37:15;;;;;;;7.90;4.47;;;26.00;99.90;;;;;;5073088;28;20016;-61
2023/09/06 09:39:40;;;;;;;7.43;4.60;;;26.00;99.90;;;;;;5072179;28;20029;-60
2023/09/06 09:42:10;;;;;;;7.57;4.65;;;26.00;99.90;;;;;;5072695;28;20035;-60
2023/09/06 09:44:36;;;;;;;8.15;4.68;;;26.00;99.90;;;;;;5072994;28;20028;-60
2023/09/06 09:47:19;;;;;;;8.77;4.80;;;26.00;99.90;;;;;;5072236;28;20032;-60
2023/09/06 09:49:45;;;;;;;10.40;4.70;;;26.00;99.90;;;;;;5072456;28;20036;-60
2023/09/06 09:52:13;;;;;;;8.70;4.90;;;26.10;99.90;;;;;;5072028;28;20482;-60
2023/09/06 09:54:45;;;;;;;9.45;4.40;;;26.30;99.90;;;;;;5072181;28;20397;-60
2023/09/06 09:57:12;;;;;;;8.13;4.65;;;26.50;99.90;;;;;;5072712;28;20556;-60
2023/09/06 09:59:39;;;;;;;9.18;4.70;;;26.50;99.90;;;;;;5072056;28;20032;-60
2023/09/06 10:02:06;;;;;;;11.57;5.28;;;26.70;99.90;;;;;;5072134;28;20573;-60
2023/09/06 10:04:42;;;;;;;8.77;5.10;;;26.70;99.90;;;;;;5072072;28;20158;-61
2023/09/06 10:07:09;;;;;;;9.68;4.75;;;26.90;99.90;;;;;;5071135;28;20040;-61
2023/09/06 10:09:38;;;;;;;10.88;4.85;;;26.90;99.90;;;;;;5071955;28;20025;-61
2023/09/06 10:12:10;;;;;;;10.20;5.15;;;27.10;99.90;;;;;;5071913;28;20485;-61
2023/09/06 10:14:39;;;;;;;10.23;4.97;;;27.30;99.90;;;;;;5072101;28;20506;-60
2023/09/06 10:17:07;;;;;;;9.02;4.50;;;27.30;99.90;;;;;;5071661;28;20024;-61
2023/09/06 10:19:33;;;;;;;7.00;4.68;;;27.40;99.90;;;;;;5071394;28;20448;-60
2023/09/06 10:22:01;;;;;;;7.25;4.30;;;27.50;99.90;;;;;;5070773;28;20036;-61
2023/09/06 10:24:33;;;;;;;7.45;4.47;;;27.70;99.90;;;;;;5071837;28;20050;-61
2023/09/06 10:26:59;;;;;;;7.05;5.05;;;27.70;99.90;;;;;;5071424;28;20057;-61
2023/09/06 10:29:28;;;;;;;8.00;4.90;;;27.90;99.90;;;;;;5071500;28;20029;-61
2023/09/06 10:32:01;;;;;;;8.18;4.65;;;28.00;99.90;;;;;;5071938;28;20017;-61
2023/09/06 10:34:32;;;;;;;8.00;4.70;;;27.90;99.90;;;;;;5071600;28;20020;-61
2023/09/06 10:37:00;;;;;;;7.63;4.50;;;27.80;99.90;;;;;;5071099;28;20017;-62
2023/09/06 10:39:28;;;;;;;6.20;4.72;;;27.70;99.90;;;;;;5071430;28;20402;-61
2023/09/06 10:42:09;;;;;;;7.03;4.38;;;27.70;99.90;;;;;;5071975;28;20020;-60
2023/09/06 10:44:56;;;;;;;6.40;4.63;;;27.70;99.90;;;;;;5071552;28;20032;-61
2023/09/06 10:47:35;;;;;;;6.95;4.40;;;27.80;99.90;;;;;;5071351;28;20036;-61
2023/09/06 10:50:12;;;;;;;6.63;4.60;;;27.80;99.90;;;;;;5071344;28;20086;-61
2023/09/06 10:52:41;;;;;;;6.90;4.47;;;27.80;99.90;;;;;;5071108;28;20036;-61
2023/09/06 10:55:16;;;;;;;7.78;4.70;;;27.80;99.90;;;;;;5071496;28;20078;-61
2023/09/06 10:57:55;;;;;;;7.20;4.72;;;27.90;99.90;;;;;;5071310;28;20110;-61
2023/09/06 11:00:26;;;;;;;7.28;4.40;;;27.90;99.90;;;;;;5071245;28;20032;-61
2023/09/06 11:03:07;;;;;;;7.82;4.50;;;28.00;99.90;;;;;;5071281;28;20397;-61
2023/09/06 11:05:46;;;;;;;6.65;4.75;;;28.10;99.90;;;;;;5070623;28;20021;-60
2023/09/06 11:08:25;;;;;;;5.10;4.05;;;28.10;99.90;;;;;;5071151;28;20043;-61
2023/09/06 11:10:53;;;;;;;7.78;4.75;;;28.20;99.90;;;;;;5071181;28;20039;-61
2023/09/06 11:13:19;;;;;;;7.90;4.32;;;28.20;99.90;;;;;;5071214;28;20425;-61
2023/09/06 11:15:49;;;;;;;5.82;4.45;;;28.30;99.90;;;;;;5070950;28;20025;-61
2023/09/06 11:18:14;;;;;;;6.80;4.20;;;28.50;99.90;;;;;;5071176;28;20141;-60
2023/09/06 11:20:47;;;;;;;6.78;4.40;;;28.50;99.90;;;;;;5070668;28;20583;-61
2023/09/06 11:23:12;;;;;;;6.57;4.13;;;28.50;99.90;;;;;;5071300;28;20039;-61
2023/09/06 11:25:38;;;;;;;6.90;4.35;;;28.60;99.90;;;;;;5070845;28;20029;-61
2023/09/06 11:28:28;;;;;;;8.05;4.40;;;28.90;99.90;;;;;;5070519;28;20132;-60
2023/09/06 11:30:54;;;;;;;7.13;4.75;;;29.10;99.90;;;;;;5070744;28;20623;-60
2023/09/06 11:33:31;;;;;;;9.77;4.63;;;29.20;99.90;;;;;;5075189;28;20111;-61
2023/09/06 11:35:58;;;;;;;7.70;4.57;;;29.30;99.90;;;;;;5074476;28;20028;-61
2023/09/06 11:38:33;;;;;;;9.82;4.70;;;29.30;99.90;;;;;;5074903;28;20075;-61
2023/09/06 11:41:03;;;;;;;5.13;4.28;;;29.30;99.90;;;;;;5074683;28;20094;-61
2023/09/06 11:43:30;;;;;;;6.05;4.10;;;29.40;99.90;;;;;;5074640;28;20125;-60
2023/09/06 11:45:56;;;;;;;6.93;4.50;;;29.50;99.90;;;;;;5075345;28;20032;-60
2023/09/06 11:48:29;;;;;;;7.88;4.82;;;29.50;99.90;;;;;;5074338;28;20040;-60
2023/09/06 11:51:03;;;;;;;6.13;4.57;;;29.50;99.90;;;;;;5074414;28;20021;-60
2023/09/06 11:53:31;;;;;;;9.93;4.72;;;29.70;99.90;;;;;;5074266;28;20036;-61
2023/09/06 11:55:59;;;;;;;5.13;4.38;;;29.70;99.90;;;;;;5074714;28;20112;-60
2023/09/06 11:58:27;;;;;;;6.90;4.70;;;29.80;99.90;;;;;;5074798;28;20099;-61
2023/09/06 12:00:55;;;;;;;8.32;4.90;;;29.80;99.90;;;;;;5075050;28;20025;-61
2023/09/06 12:03:33;;;;;;;6.95;4.35;;;29.90;99.90;;;;;;5074208;28;20028;-60
2023/09/06 12:06:00;;;;;;;4.85;4.30;;;30.00;99.90;;;;;;5074615;28;20029;-60
2023/09/06 12:08:29;;;;;;;6.72;4.55;;;30.00;99.90;;;;;;5074865;28;20094;-61
2023/09/06 12:11:05;;;;;;;6.88;4.68;;;29.90;99.90;;;;;;5074249;28;20029;-61
2023/09/06 12:13:34;;;;;;;8.82;4.35;;;29.80;99.90;;;;;;5066959;28;20064;-60
2023/09/06 12:16:01;;;;;;;7.60;4.38;;;29.80;99.90;;;;;;5074226;28;20036;-60
2023/09/06 12:18:31;;;;;;;7.85;4.82;;;29.80;99.90;;;;;;5073888;28;20036;-60
2023/09/06 12:20:58;;;;;;;6.07;4.97;;;29.90;99.90;;;;;;5074241;28;20623;-60
2023/09/06 12:23:32;;;;;;;9.32;4.65;;;29.90;99.90;;;;;;5074246;28;20436;-60
2023/09/06 12:25:59;;;;;;;5.82;4.78;;;29.80;99.90;;;;;;5074617;28;20028;-60
2023/09/06 12:28:26;;;;;;;4.68;4.20;;;29.90;99.90;;;;;;5056001;28;20460;-60
2023/09/06 12:30:55;;;;;;;9.70;4.85;;;30.10;99.90;;;;;;5073969;28;20447;-61
2023/09/06 12:33:24;;;;;;;6.50;4.80;;;30.10;99.90;;;;;;5073684;28;20028;-61
2023/09/06 12:36:01;;;;;;;6.85;4.80;;;30.20;99.90;;;;;;5073874;28;20040;-61
2023/09/06 12:38:28;;;;;;;6.50;4.38;;;30.10;99.90;;;;;;5074394;28;20025;-61
2023/09/06 12:40:53;;;;;;;8.30;4.40;;;30.20;99.90;;;;;;5073831;28;20116;-61
2023/09/06 12:43:21;;;;;;;6.95;4.53;;;30.20;99.90;;;;;;5072844;28;20446;-61
2023/09/06 12:45:47;;;;;;;7.32;4.90;;;30.20;99.90;;;;;;5073934;28;20552;-61